Time;durP1;ratioP1;P1;durP2;ratioP2;P2;SDS_P1;SDS_P2;PMS_P1;PMS_P2;Temp;Humidity;BMP_temperature;BMP_pressure;BME280_temperature;BME280_humidity;BME280_pressure;Samples;Min_cycle;Max_cycle;Signal;HPM_P1;HPM_P2
2023/12/26 00:02:09;;;;;;;6.30;2.00;;;9.50;99.90;;;;;;5118889;27;20594;-66
2023/12/26 00:04:35;;;;;;;2.40;1.20;;;9.50;99.90;;;;;;5084034;27;20048;-66
2023/12/26 00:07:01;;;;;;;6.45;1.85;;;9.50;99.90;;;;;;5101509;27;20073;-66
2023/12/26 00:09:27;;;;;;;4.40;1.60;;;9.50;99.90;;;;;;5073116;28;20120;-66
2023/12/26 00:11:53;;;;;;;5.78;1.98;;;9.60;99.90;;;;;;5118950;27;20040;-66
2023/12/26 00:14:18;;;;;;;3.50;1.40;;;9.60;99.90;;;;;;5122185;27;20436;-67
2023/12/26 00:16:44;;;;;;;4.13;1.25;;;9.60;99.90;;;;;;5118082;27;20146;-66
2023/12/26 00:19:10;;;;;;;3.92;1.40;;;9.60;99.90;;;;;;5085623;28;20112;-66
2023/12/26 00:21:40;;;;;;;4.20;1.05;;;9.60;99.90;;;;;;5071596;28;20119;-66
2023/12/26 00:24:06;;;;;;;4.63;1.42;;;9.60;99.90;;;;;;5120458;27;20039;-66
2023/12/26 00:26:32;;;;;;;6.68;1.40;;;9.60;99.90;;;;;;5119469;27;20043;-66
2023/12/26 00:28:59;;;;;;;4.43;1.50;;;9.60;99.90;;;;;;5087082;28;20078;-67
2023/12/26 00:31:25;;;;;;;4.47;1.40;;;9.60;99.90;;;;;;5115901;27;20051;-67
2023/12/26 00:33:53;;;;;;;3.80;1.48;;;9.60;99.90;;;;;;5089085;27;20697;-66
2023/12/26 00:36:19;;;;;;;5.43;1.48;;;9.60;99.90;;;;;;5096585;28;20058;-65
2023/12/26 00:38:45;;;;;;;4.50;1.25;;;9.60;99.90;;;;;;5085114;28;20055;-66
2023/12/26 00:41:14;;;;;;;5.40;1.60;;;9.60;99.90;;;;;;5103863;28;20051;-67
2023/12/26 00:43:40;;;;;;;4.97;1.40;;;9.60;99.90;;;;;;5080965;28;20322;-66
2023/12/26 00:46:06;;;;;;;4.05;1.27;;;9.60;99.90;;;;;;5128167;27;20617;-66
2023/12/26 00:48:33;;;;;;;4.93;1.30;;;9.60;99.90;;;;;;5102975;28;20054;-66
2023/12/26 00:50:58;;;;;;;5.97;1.10;;;9.60;99.90;;;;;;5088449;28;20048;-66
2023/12/26 00:53:24;;;;;;;5.90;1.02;;;9.60;99.90;;;;;;5104248;28;20079;-66
2023/12/26 00:55:53;;;;;;;5.28;0.90;;;9.60;99.90;;;;;;5106377;27;20131;-67
2023/12/26 00:58:19;;;;;;;8.07;1.20;;;9.60;99.90;;;;;;5104276;28;20079;-66
2023/12/26 01:00:45;;;;;;;5.43;1.10;;;9.60;99.90;;;;;;5101431;28;20172;-66
2023/12/26 01:03:11;;;;;;;8.30;1.10;;;9.60;99.90;;;;;;5104509;28;20188;-66
2023/12/26 01:05:36;;;;;;;6.05;1.10;;;9.60;99.90;;;;;;5087239;28;20036;-66
2023/12/26 01:08:02;;;;;;;8.38;0.98;;;9.60;99.90;;;;;;5104515;28;20047;-67
2023/12/26 01:10:28;;;;;;;7.45;0.98;;;9.60;99.90;;;;;;5103034;28;20571;-66
2023/12/26 01:12:54;;;;;;;12.50;1.42;;;9.60;99.90;;;;;;5130796;27;20401;-66
2023/12/26 01:15:22;;;;;;;9.93;1.17;;;9.60;99.90;;;;;;5112287;27;20044;-66
2023/12/26 01:17:48;;;;;;;10.57;1.15;;;9.60;99.90;;;;;;5105860;28;20051;-66
2023/12/26 01:20:14;;;;;;;11.13;1.10;;;9.60;99.90;;;;;;5086686;28;20054;-66
2023/12/26 01:22:40;;;;;;;16.83;1.75;;;9.60;99.90;;;;;;5104725;28;20052;-70
2023/12/26 01:25:06;;;;;;;9.90;1.20;;;9.60;99.90;;;;;;5104020;28;20052;-66
2023/12/26 01:27:33;;;;;;;9.40;1.55;;;9.60;99.90;;;;;;5087534;28;20043;-66
2023/12/26 01:30:01;;;;;;;10.70;1.42;;;9.60;99.90;;;;;;5103360;28;20144;-66
2023/12/26 01:32:27;;;;;;;16.00;1.73;;;9.60;99.90;;;;;;5123902;27;20194;-66
2023/12/26 01:34:53;;;;;;;12.82;1.48;;;9.60;99.90;;;;;;5086802;28;20048;-66
2023/12/26 01:37:19;;;;;;;12.70;2.08;;;9.60;99.90;;;;;;5127642;27;20055;-67
2023/12/26 01:39:45;;;;;;;20.80;2.75;;;9.60;99.90;;;;;;5102881;28;20048;-67
2023/12/26 01:42:10;;;;;;;7.43;1.50;;;9.60;99.90;;;;;;5103813;28;20137;-67
2023/12/26 01:44:36;;;;;;;12.65;1.63;;;9.60;99.90;;;;;;5133943;27;20047;-67
2023/12/26 01:47:03;;;;;;;10.77;1.77;;;9.60;99.90;;;;;;5087330;28;20047;-67
2023/12/26 01:49:29;;;;;;;16.60;2.10;;;9.50;99.90;;;;;;5100715;28;20051;-67
2023/12/26 01:51:57;;;;;;;17.45;2.33;;;9.60;99.90;;;;;;5104430;28;20134;-67
2023/12/26 01:54:29;;;;;;;20.98;2.60;;;9.50;99.90;;;;;;5086404;28;20043;-67
2023/12/26 01:56:54;;;;;;;17.75;2.05;;;9.50;99.90;;;;;;5103571;28;20055;-66
2023/12/26 01:59:23;;;;;;;16.98;2.25;;;9.50;99.90;;;;;;5103321;28;20047;-66
2023/12/26 02:01:49;;;;;;;24.35;2.95;;;9.50;99.90;;;;;;5109897;28;20058;-66
2023/12/26 02:04:18;;;;;;;18.38;2.33;;;9.50;99.90;;;;;;5110059;28;20050;-66
2023/12/26 02:06:44;;;;;;;16.90;2.70;;;9.50;99.90;;;;;;5108442;28;20051;-66
2023/12/26 02:09:13;;;;;;;17.52;2.67;;;9.50;99.90;;;;;;5105424;28;20044;-67
2023/12/26 02:11:39;;;;;;;18.73;2.05;;;9.50;99.90;;;;;;5107767;28;20090;-66
2023/12/26 02:14:06;;;;;;;24.20;2.40;;;9.50;99.90;;;;;;5107919;27;20062;-66
2023/12/26 02:16:37;;;;;;;16.02;2.08;;;9.50;99.90;;;;;;5133013;27;20048;-66
2023/12/26 02:19:03;;;;;;;14.10;1.70;;;9.50;99.90;;;;;;5132845;27;20771;-66
2023/12/26 02:21:29;;;;;;;20.00;2.95;;;9.40;99.90;;;;;;5107563;28;20105;-66
2023/12/26 02:23:56;;;;;;;18.45;2.42;;;9.40;99.90;;;;;;5090561;28;20812;-66
2023/12/26 02:26:24;;;;;;;16.10;1.80;;;9.40;99.90;;;;;;5107546;28;20040;-66
2023/12/26 02:28:52;;;;;;;17.48;2.47;;;9.40;99.90;;;;;;5136187;27;20066;-66
2023/12/26 02:31:18;;;;;;;19.17;2.70;;;9.40;99.90;;;;;;5107114;28;20055;-64
2023/12/26 02:33:46;;;;;;;20.38;2.08;;;9.40;99.90;;;;;;5116595;27;20558;-66
2023/12/26 02:36:13;;;;;;;14.27;2.08;;;9.40;99.90;;;;;;5129342;27;20480;-66
2023/12/26 02:38:38;;;;;;;15.65;2.33;;;9.30;99.90;;;;;;5089742;28;20055;-66
2023/12/26 02:41:04;;;;;;;17.52;2.20;;;9.30;99.90;;;;;;5107473;28;20092;-66
2023/12/26 02:43:30;;;;;;;18.42;2.50;;;9.30;99.90;;;;;;5131035;27;20038;-66
2023/12/26 02:45:56;;;;;;;15.52;2.30;;;9.30;99.90;;;;;;5107150;28;20555;-67
2023/12/26 02:48:21;;;;;;;16.25;2.22;;;9.30;99.90;;;;;;5106699;28;20096;-67
2023/12/26 02:50:48;;;;;;;16.58;3.15;;;9.20;99.90;;;;;;5107268;28;20136;-67
2023/12/26 02:53:14;;;;;;;11.70;2.38;;;9.20;99.90;;;;;;5105883;28;20066;-67
2023/12/26 02:55:40;;;;;;;12.82;2.47;;;9.20;99.90;;;;;;5107090;28;20461;-68
2023/12/26 02:58:06;;;;;;;17.05;1.95;;;9.20;99.90;;;;;;5107331;28;20043;-65
2023/12/26 03:00:31;;;;;;;17.33;2.08;;;9.10;99.90;;;;;;5103265;28;20658;-65
2023/12/26 03:02:57;;;;;;;14.43;2.25;;;9.10;99.90;;;;;;5107320;28;20491;-65
2023/12/26 03:05:23;;;;;;;14.68;2.20;;;9.10;99.90;;;;;;5106974;28;20043;-65
2023/12/26 03:07:49;;;;;;;21.55;2.25;;;9.10;99.90;;;;;;5136475;27;20126;-66
2023/12/26 03:10:15;;;;;;;13.82;2.38;;;9.10;99.90;;;;;;5106444;28;20042;-65
2023/12/26 03:12:41;;;;;;;20.45;2.63;;;9.00;99.90;;;;;;5089780;28;20046;-66
2023/12/26 03:15:08;;;;;;;16.20;1.70;;;9.00;99.90;;;;;;5106128;28;20044;-69
2023/12/26 03:17:34;;;;;;;11.68;2.05;;;9.00;99.90;;;;;;5132719;27;20048;-69
2023/12/26 03:20:00;;;;;;;21.20;2.70;;;9.00;99.90;;;;;;5131376;27;20032;-69
2023/12/26 03:22:25;;;;;;;13.52;1.98;;;8.90;99.90;;;;;;5131761;27;20043;-69
2023/12/26 03:24:51;;;;;;;16.35;2.78;;;8.90;99.90;;;;;;5089073;28;20035;-69
2023/12/26 03:27:17;;;;;;;9.30;1.80;;;8.90;99.90;;;;;;5106528;28;20058;-69
2023/12/26 03:29:43;;;;;;;13.57;2.03;;;8.90;99.90;;;;;;5133189;27;20503;-69
2023/12/26 03:32:09;;;;;;;17.75;2.20;;;8.90;99.90;;;;;;5107519;28;20043;-69
2023/12/26 03:34:37;;;;;;;17.35;2.50;;;8.80;99.90;;;;;;5106872;28;20117;-67
2023/12/26 03:37:03;;;;;;;23.85;2.65;;;8.80;99.90;;;;;;5105499;27;20559;-66
2023/12/26 03:39:29;;;;;;;13.68;1.75;;;8.70;99.90;;;;;;5105071;28;20043;-67
2023/12/26 03:41:56;;;;;;;22.25;3.40;;;8.70;99.90;;;;;;5106935;28;20048;-67
2023/12/26 03:44:22;;;;;;;18.35;2.38;;;8.70;99.90;;;;;;5089397;28;20062;-68
2023/12/26 03:46:47;;;;;;;19.20;2.35;;;8.60;99.90;;;;;;5106395;28;20055;-68
2023/12/26 03:49:13;;;;;;;21.88;2.45;;;8.60;99.90;;;;;;5088287;28;20492;-69
2023/12/26 03:51:39;;;;;;;19.10;2.95;;;8.50;99.90;;;;;;5107228;28;20044;-68
2023/12/26 03:54:05;;;;;;;19.95;2.95;;;8.50;99.90;;;;;;5106285;28;20083;-68
2023/12/26 03:56:31;;;;;;;20.02;3.22;;;8.50;99.90;;;;;;5106014;28;20440;-69
2023/12/26 03:58:58;;;;;;;19.75;3.10;;;8.50;99.90;;;;;;5129392;27;20561;-69
2023/12/26 04:01:24;;;;;;;21.70;2.83;;;8.40;99.90;;;;;;5068606;28;20040;-70
2023/12/26 04:03:53;;;;;;;19.83;3.38;;;8.40;99.90;;;;;;5106444;28;20040;-69
2023/12/26 04:06:20;;;;;;;20.30;3.15;;;8.30;99.90;;;;;;5131353;27;20525;-69
2023/12/26 04:08:48;;;;;;;19.92;3.42;;;8.30;99.90;;;;;;5109113;27;20063;-69
2023/12/26 04:11:14;;;;;;;13.18;2.47;;;8.30;99.90;;;;;;5105848;28;20560;-69
2023/12/26 04:13:40;;;;;;;22.05;3.17;;;8.20;99.90;;;;;;5107319;28;20840;-69
2023/12/26 04:16:06;;;;;;;20.58;3.03;;;8.20;99.90;;;;;;5105190;28;20044;-68
2023/12/26 04:18:33;;;;;;;18.52;2.83;;;8.20;99.90;;;;;;5105576;28;20489;-69
2023/12/26 04:20:59;;;;;;;26.60;3.55;;;8.20;99.90;;;;;;5132895;27;20438;-69
2023/12/26 04:23:25;;;;;;;18.33;3.03;;;8.10;99.90;;;;;;5129484;27;20044;-69
2023/12/26 04:25:51;;;;;;;21.50;3.83;;;8.10;99.90;;;;;;5105294;28;20048;-68
2023/12/26 04:28:17;;;;;;;21.42;2.63;;;8.10;99.90;;;;;;5105357;28;20056;-68
2023/12/26 04:30:43;;;;;;;23.17;3.60;;;8.10;99.90;;;;;;5104314;28;20092;-69
2023/12/26 04:33:10;;;;;;;18.42;2.72;;;8.00;99.90;;;;;;5088309;28;20047;-69
2023/12/26 04:35:36;;;;;;;18.13;2.70;;;8.00;99.90;;;;;;5088670;28;20043;-68
2023/12/26 04:38:02;;;;;;;22.40;3.08;;;8.00;99.90;;;;;;5105814;28;20574;-68
2023/12/26 04:40:28;;;;;;;23.67;3.13;;;8.00;99.90;;;;;;5132140;27;20043;-68
2023/12/26 04:42:54;;;;;;;27.40;3.25;;;8.00;99.90;;;;;;5105455;28;20059;-70
2023/12/26 04:45:20;;;;;;;15.80;2.67;;;7.90;99.90;;;;;;5106179;28;20035;-69
2023/12/26 04:47:46;;;;;;;17.52;2.97;;;8.00;99.90;;;;;;5104849;28;20040;-69
2023/12/26 04:50:12;;;;;;;17.25;3.05;;;7.90;99.90;;;;;;5103857;28;20136;-69
2023/12/26 04:52:38;;;;;;;29.45;3.45;;;7.90;99.90;;;;;;5105129;28;20054;-69
2023/12/26 04:55:04;;;;;;;19.58;2.78;;;7.90;99.90;;;;;;5105711;28;20039;-69
2023/12/26 04:57:30;;;;;;;22.55;2.50;;;7.90;99.90;;;;;;5079737;28;20048;-68
2023/12/26 04:59:56;;;;;;;29.13;3.15;;;7.80;99.90;;;;;;5099397;28;20035;-68
2023/12/26 05:02:21;;;;;;;16.90;2.58;;;7.90;99.90;;;;;;5087006;28;20487;-69
2023/12/26 05:04:47;;;;;;;20.80;2.78;;;7.80;99.90;;;;;;5104878;28;20040;-68
2023/12/26 05:07:13;;;;;;;16.10;2.28;;;7.80;99.90;;;;;;5103933;28;20104;-69
2023/12/26 05:09:39;;;;;;;19.30;2.67;;;7.80;99.90;;;;;;5105308;28;20102;-68
2023/12/26 05:12:06;;;;;;;23.33;3.53;;;7.80;99.90;;;;;;5132083;27;20047;-68
2023/12/26 05:14:32;;;;;;;13.10;2.30;;;7.80;99.90;;;;;;5103800;28;20048;-68
2023/12/26 05:16:58;;;;;;;17.13;2.22;;;7.80;99.90;;;;;;5083459;28;20601;-68
2023/12/26 05:19:24;;;;;;;19.23;2.42;;;7.80;99.90;;;;;;5129993;27;20047;-68
2023/12/26 05:21:53;;;;;;;14.40;2.33;;;7.80;99.90;;;;;;5105701;28;20498;-69
2023/12/26 05:24:19;;;;;;;16.75;2.17;;;7.80;99.90;;;;;;5105950;27;20108;-68
2023/12/26 05:26:44;;;;;;;12.80;2.15;;;7.80;99.90;;;;;;5105744;28;20075;-67
2023/12/26 05:29:11;;;;;;;18.20;2.50;;;7.80;99.90;;;;;;5104732;28;20452;-68
2023/12/26 05:31:40;;;;;;;17.17;2.33;;;7.80;99.90;;;;;;5104138;28;20040;-69
2023/12/26 05:34:07;;;;;;;15.45;2.50;;;7.80;99.90;;;;;;5105700;28;20066;-66
2023/12/26 05:36:33;;;;;;;14.55;2.47;;;7.80;99.90;;;;;;5104140;28;20561;-68
2023/12/26 05:38:59;;;;;;;12.88;1.92;;;7.90;99.90;;;;;;5104567;28;20032;-68
2023/12/26 05:41:25;;;;;;;18.27;3.28;;;7.90;99.90;;;;;;5137079;27;20471;-68
2023/12/26 05:43:51;;;;;;;12.25;2.42;;;7.90;99.90;;;;;;5087099;28;20031;-70
2023/12/26 05:46:20;;;;;;;15.25;2.50;;;7.90;99.90;;;;;;5071657;28;20051;-68
2023/12/26 05:48:49;;;;;;;;;;;7.90;99.90;;;;;;5104677;28;20075;-68
2023/12/26 05:51:14;;;;;;;20.45;2.00;;;7.90;99.90;;;;;;5103823;28;19973;-68
2023/12/26 05:53:40;;;;;;;16.30;2.33;;;7.90;99.90;;;;;;5106288;28;20101;-65
2023/12/26 05:56:06;;;;;;;20.40;3.80;;;8.00;99.90;;;;;;5105441;28;20789;-65
2023/12/26 05:58:32;;;;;;;11.70;2.10;;;8.00;99.90;;;;;;5103943;28;20071;-66
2023/12/26 06:00:58;;;;;;;19.08;2.60;;;8.00;99.90;;;;;;5099573;28;20586;-66
2023/12/26 06:03:24;;;;;;;16.42;2.92;;;8.00;99.90;;;;;;5083906;28;20044;-66
2023/12/26 06:05:50;;;;;;;15.05;2.20;;;8.00;99.90;;;;;;5099310;28;20039;-65
2023/12/26 06:08:15;;;;;;;14.90;2.28;;;8.00;99.90;;;;;;5103933;28;20130;-65
2023/12/26 06:10:41;;;;;;;16.75;2.20;;;8.10;99.90;;;;;;5104487;28;20047;-65
2023/12/26 06:13:07;;;;;;;14.13;2.20;;;8.10;99.90;;;;;;5129470;27;20043;-66
2023/12/26 06:15:33;;;;;;;17.27;2.33;;;8.10;99.90;;;;;;5103975;28;20047;-66
2023/12/26 06:17:59;;;;;;;17.00;2.20;;;8.10;99.90;;;;;;5103378;28;20039;-66
2023/12/26 06:20:27;;;;;;;16.75;2.97;;;8.10;99.90;;;;;;5085850;28;20044;-69
2023/12/26 06:22:54;;;;;;;21.17;3.50;;;8.10;99.90;;;;;;5104132;28;20088;-69
2023/12/26 06:25:19;;;;;;;12.63;1.77;;;8.10;99.90;;;;;;5103234;28;20590;-69
2023/12/26 06:27:45;;;;;;;15.68;2.28;;;8.10;99.90;;;;;;5103815;28;20115;-69
2023/12/26 06:30:12;;;;;;;21.38;2.33;;;8.10;99.90;;;;;;5129968;27;20048;-69
2023/12/26 06:32:37;;;;;;;19.88;3.85;;;8.10;99.90;;;;;;5103775;28;20048;-69
2023/12/26 06:35:04;;;;;;;24.20;2.72;;;8.10;99.90;;;;;;5099641;28;20048;-68
2023/12/26 06:37:29;;;;;;;19.50;2.45;;;8.10;99.90;;;;;;5105226;28;20669;-69
2023/12/26 06:39:55;;;;;;;26.75;2.60;;;8.10;99.90;;;;;;5085592;28;20075;-69
2023/12/26 06:42:22;;;;;;;17.42;2.35;;;8.00;99.90;;;;;;5087501;28;20043;-69
2023/12/26 06:44:48;;;;;;;18.05;3.60;;;8.00;99.90;;;;;;5103980;28;20043;-69
2023/12/26 06:47:14;;;;;;;31.63;2.95;;;8.00;99.90;;;;;;5130344;27;20083;-69
2023/12/26 06:49:46;;;;;;;23.70;3.50;;;8.00;99.90;;;;;;5095961;28;20047;-68
2023/12/26 06:52:14;;;;;;;18.52;2.80;;;8.00;99.90;;;;;;5127838;27;20048;-68
2023/12/26 06:54:43;;;;;;;14.20;2.83;;;8.00;99.90;;;;;;5131122;27;20048;-68
2023/12/26 06:57:15;;;;;;;18.52;2.55;;;7.90;99.90;;;;;;5097500;28;20074;-68
2023/12/26 06:59:48;;;;;;;20.50;2.47;;;7.90;99.90;;;;;;5096494;28;20039;-68
2023/12/26 07:02:15;;;;;;;18.83;2.92;;;7.90;99.90;;;;;;5102489;28;20126;-68
2023/12/26 07:04:42;;;;;;;18.75;2.22;;;7.90;99.90;;;;;;5128100;27;20694;-68
2023/12/26 07:07:08;;;;;;;15.25;2.53;;;8.00;99.90;;;;;;5099278;28;20047;-68
2023/12/26 07:09:34;;;;;;;19.90;2.67;;;8.00;99.90;;;;;;5107495;28;20104;-68
2023/12/26 07:11:59;;;;;;;29.60;3.58;;;8.00;99.90;;;;;;5102979;28;20062;-68
2023/12/26 07:14:27;;;;;;;17.55;2.72;;;8.00;99.90;;;;;;5101527;28;20051;-68
2023/12/26 07:16:53;;;;;;;14.98;2.75;;;8.00;99.90;;;;;;5091311;28;20040;-69
2023/12/26 07:19:18;;;;;;;23.13;3.33;;;8.00;99.90;;;;;;5078117;27;20639;-68
2023/12/26 07:21:44;;;;;;;22.25;2.70;;;8.00;99.90;;;;;;5094490;28;20045;-68
2023/12/26 07:24:10;;;;;;;30.77;3.13;;;8.00;99.90;;;;;;5093985;28;20075;-68
2023/12/26 07:26:36;;;;;;;19.73;2.28;;;8.00;99.90;;;;;;5104718;28;20207;-68
2023/12/26 07:29:01;;;;;;;20.27;2.65;;;8.00;99.90;;;;;;5105399;28;20201;-68
2023/12/26 07:31:27;;;;;;;21.10;2.97;;;8.00;99.90;;;;;;5102880;28;20050;-67
2023/12/26 07:33:53;;;;;;;17.75;3.00;;;8.00;99.90;;;;;;5096059;28;20058;-69
2023/12/26 07:36:23;;;;;;;18.58;3.50;;;8.00;99.90;;;;;;5118258;27;20043;-68
2023/12/26 07:38:49;;;;;;;23.73;2.75;;;8.00;99.90;;;;;;5098177;28;20036;-68
2023/12/26 07:41:14;;;;;;;19.90;3.08;;;8.00;99.90;;;;;;5098624;28;20040;-68
2023/12/26 07:43:40;;;;;;;18.23;2.40;;;8.00;99.90;;;;;;5093694;28;20067;-68
2023/12/26 07:46:06;;;;;;;23.65;2.97;;;8.00;99.90;;;;;;5102419;28;20126;-69
2023/12/26 07:48:32;;;;;;;22.17;3.20;;;8.00;99.90;;;;;;5126673;27;20187;-67
2023/12/26 07:50:58;;;;;;;22.88;3.30;;;8.00;99.90;;;;;;5098771;28;20035;-68
2023/12/26 07:53:24;;;;;;;20.25;2.80;;;8.00;99.90;;;;;;5078949;28;20774;-68
2023/12/26 07:55:49;;;;;;;18.48;2.92;;;8.00;99.90;;;;;;5093303;28;20424;-68
2023/12/26 07:58:16;;;;;;;17.88;2.38;;;8.00;99.90;;;;;;5094859;28;20082;-67
2023/12/26 08:00:43;;;;;;;21.10;3.00;;;8.00;99.90;;;;;;5082734;28;20078;-68
2023/12/26 08:03:09;;;;;;;17.65;2.40;;;8.00;99.90;;;;;;5096446;28;20394;-68
2023/12/26 08:05:35;;;;;;;28.90;3.08;;;8.00;99.90;;;;;;5098658;28;20043;-68
2023/12/26 08:08:00;;;;;;;22.42;3.15;;;8.00;99.90;;;;;;5064405;28;20100;-66
2023/12/26 08:10:26;;;;;;;22.65;3.55;;;8.00;99.90;;;;;;5079393;28;20042;-66
2023/12/26 08:12:52;;;;;;;29.65;3.58;;;8.00;99.90;;;;;;5075843;28;20065;-66
2023/12/26 08:15:18;;;;;;;22.92;2.80;;;8.00;99.90;;;;;;5090277;28;20124;-66
2023/12/26 08:17:44;;;;;;;16.38;2.63;;;8.00;99.90;;;;;;5088446;28;20048;-65
2023/12/26 08:20:11;;;;;;;25.48;2.65;;;8.00;99.90;;;;;;5095470;28;20048;-66
2023/12/26 08:22:37;;;;;;;20.60;2.92;;;8.00;99.90;;;;;;5093576;28;21625;-65
2023/12/26 08:25:03;;;;;;;17.65;2.75;;;8.00;99.90;;;;;;5089975;28;20061;-66
2023/12/26 08:27:29;;;;;;;25.40;3.55;;;8.00;99.90;;;;;;5095390;28;20136;-65
2023/12/26 08:29:55;;;;;;;27.00;2.75;;;8.00;99.90;;;;;;5078425;28;20122;-65
2023/12/26 08:32:24;;;;;;;20.65;3.72;;;8.00;99.90;;;;;;5093104;27;20039;-65
2023/12/26 08:34:49;;;;;;;16.45;2.70;;;8.00;99.90;;;;;;5094648;28;21012;-65
2023/12/26 08:37:15;;;;;;;21.15;3.28;;;8.10;99.90;;;;;;5097172;28;20044;-66
2023/12/26 08:39:41;;;;;;;19.77;2.70;;;8.00;99.90;;;;;;5094348;28;20560;-66
2023/12/26 08:42:07;;;;;;;24.08;3.50;;;8.10;99.90;;;;;;5097459;28;20044;-67
2023/12/26 08:44:33;;;;;;;26.05;3.00;;;8.10;99.90;;;;;;5094019;28;20052;-66
2023/12/26 08:47:05;;;;;;;14.63;2.50;;;8.10;99.90;;;;;;5107496;27;20048;-66
2023/12/26 08:49:31;;;;;;;17.60;2.72;;;8.10;99.90;;;;;;5094790;28;20471;-66
2023/12/26 08:51:58;;;;;;;22.65;2.75;;;8.10;99.90;;;;;;5086318;28;20054;-66
2023/12/26 08:54:24;;;;;;;24.10;2.72;;;8.10;99.90;;;;;;5118735;27;20058;-66
2023/12/26 08:56:49;;;;;;;20.88;2.67;;;8.10;99.90;;;;;;5091195;28;20035;-66
2023/12/26 08:59:15;;;;;;;18.70;3.20;;;8.10;99.90;;;;;;5096678;28;20142;-67
2023/12/26 09:01:41;;;;;;;25.55;3.25;;;8.10;99.90;;;;;;5098031;28;20044;-67
2023/12/26 09:04:07;;;;;;;23.30;2.85;;;8.10;99.90;;;;;;5074822;28;20088;-66
2023/12/26 09:06:33;;;;;;;28.10;3.08;;;8.10;99.90;;;;;;5078420;28;20603;-66
2023/12/26 09:08:59;;;;;;;19.25;2.15;;;8.10;99.90;;;;;;5093488;28;20092;-66
2023/12/26 09:11:25;;;;;;;17.45;3.33;;;8.10;99.90;;;;;;5093815;28;20047;-67
2023/12/26 09:13:51;;;;;;;24.00;2.83;;;8.10;99.90;;;;;;5081266;28;20051;-65
2023/12/26 09:16:16;;;;;;;17.00;2.65;;;8.10;99.90;;;;;;5082682;28;20051;-66
2023/12/26 09:18:42;;;;;;;14.88;2.75;;;8.20;99.90;;;;;;5085113;28;20078;-66
2023/12/26 09:21:08;;;;;;;18.42;2.67;;;8.20;99.90;;;;;;5090096;28;20043;-66
2023/12/26 09:23:34;;;;;;;15.82;2.38;;;8.20;99.90;;;;;;5079937;28;20043;-66
2023/12/26 09:26:03;;;;;;;18.13;1.75;;;8.20;99.90;;;;;;5086206;28;20054;-66
2023/12/26 09:28:30;;;;;;;18.30;2.22;;;8.20;99.90;;;;;;5114489;27;20638;-65
2023/12/26 09:30:56;;;;;;;16.33;2.50;;;8.20;99.90;;;;;;5089620;28;20048;-65
2023/12/26 09:33:22;;;;;;;22.00;2.92;;;8.20;99.90;;;;;;5075255;28;20040;-65
2023/12/26 09:35:48;;;;;;;20.92;3.10;;;8.20;99.90;;;;;;5089559;28;20047;-65
2023/12/26 09:38:13;;;;;;;17.70;2.53;;;8.20;99.90;;;;;;5098013;28;20043;-64
2023/12/26 09:40:39;;;;;;;17.27;3.15;;;8.20;99.90;;;;;;5091112;28;20043;-65
2023/12/26 09:43:07;;;;;;;13.65;2.45;;;8.30;99.90;;;;;;5123702;27;20581;-66
2023/12/26 09:45:33;;;;;;;16.20;2.85;;;8.20;99.90;;;;;;5073946;28;20039;-66
2023/12/26 09:47:59;;;;;;;18.60;3.40;;;8.20;99.90;;;;;;5118189;27;20043;-66
2023/12/26 09:50:25;;;;;;;22.80;2.95;;;8.30;99.90;;;;;;5079977;28;20129;-66
2023/12/26 09:52:53;;;;;;;11.73;2.70;;;8.30;99.90;;;;;;5085985;28;21357;-66
2023/12/26 09:55:22;;;;;;;19.83;2.83;;;8.30;99.90;;;;;;5064660;28;20066;-66
2023/12/26 09:57:48;;;;;;;20.10;2.80;;;8.20;99.90;;;;;;5090366;28;20050;-66
2023/12/26 10:00:15;;;;;;;24.42;3.95;;;8.30;99.90;;;;;;5078202;28;20090;-66
2023/12/26 10:02:43;;;;;;;14.10;2.40;;;8.30;99.90;;;;;;5095075;28;20697;-65
2023/12/26 10:05:10;;;;;;;24.27;2.95;;;8.30;99.90;;;;;;5089435;28;20043;-65
2023/12/26 10:07:36;;;;;;;16.05;3.00;;;8.30;99.90;;;;;;5095721;28;20429;-65
2023/12/26 10:10:03;;;;;;;24.67;2.90;;;8.30;99.90;;;;;;5093791;28;20047;-65
2023/12/26 10:12:34;;;;;;;21.52;4.30;;;8.30;99.90;;;;;;5093992;28;20035;-65
2023/12/26 10:15:04;;;;;;;16.17;2.67;;;8.40;99.90;;;;;;5093415;28;20114;-64
2023/12/26 10:17:30;;;;;;;23.63;3.08;;;8.30;99.90;;;;;;5089542;28;20066;-66
2023/12/26 10:19:59;;;;;;;21.23;2.83;;;8.40;99.90;;;;;;5095409;28;20046;-65
2023/12/26 10:22:25;;;;;;;19.83;3.15;;;8.40;99.90;;;;;;5076773;28;20050;-65
2023/12/26 10:24:52;;;;;;;20.30;3.72;;;8.40;99.90;;;;;;5070398;28;20051;-65
2023/12/26 10:27:18;;;;;;;20.55;3.47;;;8.40;99.90;;;;;;5091333;28;20142;-65
2023/12/26 10:29:54;;;;;;;14.18;2.70;;;8.40;99.90;;;;;;5091441;28;20051;-65
2023/12/26 10:32:26;;;;;;;24.23;2.95;;;8.50;99.90;;;;;;5079904;28;20051;-65
2023/12/26 10:34:52;;;;;;;20.58;3.10;;;8.40;99.90;;;;;;5122201;27;20044;-66
2023/12/26 10:37:22;;;;;;;21.52;3.55;;;8.50;99.90;;;;;;5097186;28;20181;-65
2023/12/26 10:39:48;;;;;;;20.75;3.15;;;8.50;99.90;;;;;;5100234;28;20039;-66
2023/12/26 10:42:18;;;;;;;27.60;3.55;;;8.50;99.90;;;;;;5101472;28;20050;-65
2023/12/26 10:45:06;;;;;;;21.70;3.55;;;8.50;99.90;;;;;;5100073;28;20867;-66
2023/12/26 10:47:33;;;;;;;20.33;3.88;;;8.60;99.90;;;;;;5100869;28;20540;-66
2023/12/26 10:50:05;;;;;;;19.30;2.80;;;8.60;99.90;;;;;;5101485;28;20063;-66
2023/12/26 10:52:31;;;;;;;21.98;3.05;;;8.60;99.90;;;;;;5097070;28;20050;-67
2023/12/26 10:55:02;;;;;;;17.85;3.25;;;8.60;99.90;;;;;;5098820;28;20039;-69
2023/12/26 10:57:32;;;;;;;20.10;2.47;;;8.60;99.90;;;;;;5099999;28;20143;-65
2023/12/26 13:52:02;;;;;;;10.23;1.30;;;7.90;99.90;;;;;;5089196;28;20052;-69
2023/12/26 13:55:05;;;;;;;8.40;1.33;;;7.90;99.90;;;;;;5072445;28;20047;-68
2023/12/26 13:58:08;;;;;;;11.40;1.38;;;7.90;99.90;;;;;;5093242;28;20044;-69
2023/12/26 14:01:12;;;;;;;11.35;2.13;;;7.80;99.90;;;;;;5089593;28;20040;-69
2023/12/26 14:04:15;;;;;;;8.82;1.92;;;7.80;99.90;;;;;;5094611;28;20062;-66
2023/12/26 14:07:20;;;;;;;10.70;1.60;;;7.80;99.90;;;;;;5096721;28;20044;-68
2023/12/26 14:10:23;;;;;;;15.52;1.58;;;7.80;99.90;;;;;;5073217;28;20157;-67
2023/12/26 14:13:27;;;;;;;8.65;1.60;;;7.80;99.90;;;;;;5090472;28;20047;-68
2023/12/26 14:16:30;;;;;;;14.13;1.35;;;7.80;99.90;;;;;;5096616;28;20035;-67
2023/12/26 14:19:34;;;;;;;9.85;1.40;;;7.70;99.90;;;;;;5093666;28;20040;-67
2023/12/26 14:22:37;;;;;;;9.50;1.20;;;7.70;99.90;;;;;;5097557;28;20058;-68
2023/12/26 14:25:40;;;;;;;8.30;1.42;;;7.70;99.90;;;;;;5100000;28;20040;-68
2023/12/26 14:28:43;;;;;;;13.18;2.00;;;7.60;99.90;;;;;;5094509;28;20540;-67
2023/12/26 14:31:47;;;;;;;11.52;1.33;;;7.70;99.90;;;;;;5096601;28;20654;-67
2023/12/26 14:34:53;;;;;;;8.18;1.38;;;7.60;99.90;;;;;;5095722;28;20051;-68
2023/12/26 14:37:56;;;;;;;11.00;1.60;;;7.60;99.90;;;;;;5123578;27;20046;-69
2023/12/26 14:40:59;;;;;;;12.27;1.60;;;7.50;99.90;;;;;;5098308;28;20046;-67
2023/12/26 14:44:03;;;;;;;8.25;1.77;;;7.50;99.90;;;;;;5094042;28;20433;-67
2023/12/26 14:47:06;;;;;;;11.38;1.40;;;7.50;99.90;;;;;;5095370;28;20067;-68
2023/12/26 14:50:10;;;;;;;6.13;1.20;;;7.50;99.90;;;;;;5093424;28;20563;-68
2023/12/26 14:53:13;;;;;;;8.68;1.50;;;7.50;99.90;;;;;;5092136;28;20162;-67
2023/12/26 14:56:16;;;;;;;12.88;3.25;;;7.50;99.90;;;;;;5120175;27;20529;-67
2023/12/26 14:59:23;;;;;;;18.40;6.60;;;7.40;99.90;;;;;;5087669;28;20035;-67
2023/12/26 15:02:01;;;;;;;13.48;4.28;;;7.40;99.90;;;;;;5095699;28;20027;-68
2023/12/26 15:04:28;;;;;;;10.25;2.67;;;7.40;99.90;;;;;;5093739;28;20042;-67
2023/12/26 15:06:58;;;;;;;14.23;3.17;;;7.40;99.90;;;;;;5094604;28;20169;-67
2023/12/26 15:09:24;;;;;;;16.20;5.27;;;7.40;99.90;;;;;;5081376;28;20499;-68
2023/12/26 15:11:51;;;;;;;22.77;10.57;;;7.40;99.90;;;;;;5100079;28;20044;-68
2023/12/26 15:14:17;;;;;;;21.60;6.80;;;7.40;99.90;;;;;;5097229;28;20618;-68
2023/12/26 15:16:43;;;;;;;15.57;3.35;;;7.40;99.90;;;;;;5127256;27;20051;-69
2023/12/26 15:19:09;;;;;;;12.63;2.40;;;7.30;99.90;;;;;;5099177;28;20044;-68
2023/12/26 15:21:44;;;;;;;10.00;2.55;;;7.30;99.90;;;;;;5126785;27;20520;-68
2023/12/26 15:24:13;;;;;;;10.10;2.08;;;7.30;99.90;;;;;;5094435;28;20059;-68
2023/12/26 15:26:40;;;;;;;8.88;1.67;;;7.30;99.90;;;;;;5099568;28;20503;-68
2023/12/26 15:29:06;;;;;;;11.77;1.60;;;7.30;99.90;;;;;;5080637;28;20409;-68
2023/12/26 15:31:34;;;;;;;7.50;1.65;;;7.30;99.90;;;;;;5088514;28;20039;-68
2023/12/26 15:34:01;;;;;;;15.10;2.13;;;7.20;99.90;;;;;;5095056;28;20400;-68
2023/12/26 15:36:27;;;;;;;12.07;1.50;;;7.10;99.90;;;;;;5093515;28;20040;-67
2023/12/26 15:38:53;;;;;;;9.23;1.67;;;7.10;99.90;;;;;;5100567;28;20823;-68
2023/12/26 15:41:21;;;;;;;13.82;1.80;;;7.10;99.90;;;;;;5079215;28;20047;-67
2023/12/26 15:43:46;;;;;;;12.10;1.38;;;7.10;99.90;;;;;;5126280;27;20247;-68
2023/12/26 15:46:20;;;;;;;12.60;1.83;;;7.00;99.90;;;;;;5093793;28;22214;-67
2023/12/26 15:48:47;;;;;;;12.82;2.42;;;7.00;99.90;;;;;;5074071;28;20063;-68
2023/12/26 15:51:16;;;;;;;10.82;2.00;;;7.00;99.90;;;;;;5076955;28;20539;-67